Impacts TAF Board
For situational awareness. Not to be used for flight planning purposes.
IDs:

KASE - Aspen/Pitkin Cnty, CO, US

Issued at 1121 UTC 07 Jul 2020
Updated at 1353 UTC 07 Jul 2020
Potential Impact None Slight Moderate High
Time<<08/02Z 08/03Z 08/04Z 08/05Z 08/06Z 08/07Z 08/08Z 08/09Z 08/10Z 08/11Z 08/12Z 08/13Z 08/14Z>>
Type PRVL PRVL PRVL PRVL PRVL PRVL PRVL PRVL PRVL PRVL
VIS >6 >6 >6 >6 >6 >6 >6 >6 >6 >6
CIG -- -- -- -- -- -- -- -- -- --
Cover SKC SKC SKC SKC SKC SKC SKC SKC SKC SKC
FltCat VFR VFR VFR VFR VFR VFR VFR VFR VFR VFR
WX -- -- -- -- -- -- -- -- -- --
WDir 220 220 220 190 190 190 190 190 190 190
WSpd 10 10 10 7 7 7 7 7 7 7
WGst -- -- -- -- -- -- -- -- -- --
Raw TAF
KASE 071121Z 0712/0812 20008KT P6SM SCT200
  FM071600 14006KT P6SM FEW200
  FM071700 19009KT P6SM FEW120 FEW250
  FM072000 22013G21KT P6SM FEW120 FEW200
  FM080100 22010KT P6SM SKC
  FM080500 19007KT P6SM SKC


METAR Board
Radar Display
Forecast Discussion
For situational awareness. Not to be used for flight planning purposes.